MST,Max TemperatureF,Mean TemperatureF,Min TemperatureF,Max Dew PointF,MeanDew PointF,Min DewpointF,Max Humidity, Mean Humidity, Min Humidity, Max Sea Level PressureIn, Mean Sea Level PressureIn, Min Sea Level PressureIn, Max VisibilityMiles, Mean VisibilityMiles, Min VisibilityMiles, Max Wind SpeedMPH, Mean Wind SpeedMPH, Max Gust SpeedMPH,PrecipitationIn, CloudCover, Events, WindDirDegrees
2014-1-1,17,12,6,16,11,7,93,89,80,30.41,30.34,30.24,15,15,15,8,4,,0.35,5,,296
2014-1-2,47,28,8,28,27,25,70,58,37,29.99,29.76,29.47,15,15,15,22,12,30,0.00,7,,285
2014-1-3,28,22,15,27,21,14,100,88,73,30.15,29.85,29.49,20,5,0,23,15,29,0.39,8,Snow,1
2014-1-4,0,-7,-14,-4,-9,-20,85,76,62,30.70,30.53,30.38,15,11,2,14,4,21,0.08,5,Snow,55
2014-1-5,0,-14,-27,-8,-21,-31,78,70,54,30.97,30.81,30.24,20,16,15,8,4,,0.00,2,,289
2014-1-6,30,4,-21,16,9,0,73,59,46,30.38,30.19,30.09,15,15,15,23,9,28,0.00,5,,322
2014-1-7,39,26,12,19,13,10,100,82,59,30.17,30.10,30.02,20,8,0,12,8,,0.00,8,Fog,170
2014-1-8,39,20,1,24,18,-2,93,71,47,29.94,29.79,29.63,15,11,6,22,8,21,0.00,5,Fog,294
2014-1-9,35,27,19,21,18,14,80,62,44,29.60,29.55,29.52,15,15,14,24,10,31,0.00,6,Snow,290
2014-1-10,32,23,14,18,14,9,93,61,42,29.81,29.62,29.48,20,16,15,18,12,26,0.00,4,Snow,284
2014-1-11,44,24,5,30,21,5,100,73,42,29.28,29.10,28.93,20,14,1,38,16,52,0.00,6,Rain-Snow,248
2014-1-12,33,20,10,21,18,12,93,78,51,29.75,29.62,29.37,20,12,3,31,7,40,0.01,7,Snow,227
2014-1-13,40,29,12,27,24,10,100,85,36,30.33,29.88,29.47,20,7,0,44,25,54,0.43,8,Snow,291
2014-1-14,42,22,3,28,20,3,93,68,39,30.48,30.30,30.04,15,14,5,36,14,47,0.00,7,Fog,284
2014-1-15,44,34,25,24,21,14,60,46,31,30.36,30.09,29.88,15,15,15,39,26,52,0.00,5,,293
2014-1-16,45,29,13,23,17,10,79,59,34,30.51,30.38,30.25,20,16,15,9,3,,0.00,6,,314
2014-1-17,45,32,20,25,21,18,74,53,35,30.32,30.19,30.07,20,16,15,18,10,,0.00,3,,324
2014-1-18,52,32,13,27,21,14,86,56,28,30.25,30.03,29.75,15,15,15,37,10,46,0.00,3,,301
2014-1-19,39,31,21,19,17,12,74,53,32,30.32,30.03,29.85,15,15,15,17,10,23,0.00,4,,329
2014-1-20,33,21,9,18,11,5,85,66,38,30.52,30.38,30.27,20,16,15,22,5,,0.00,2,,319
2014-1-21,32,23,14,27,17,6,80,69,49,30.48,30.44,30.40,15,15,15,10,5,,0.00,6,,308
2014-1-22,25,21,17,23,20,16,93,91,83,30.51,30.41,30.29,8,4,2,12,8,,0.01,7,Fog-Snow,148
2014-1-23,41,29,17,27,24,16,100,75,55,30.45,30.40,30.34,20,16,15,15,9,22,0.00,4,,320
2014-1-24,46,38,29,30,27,23,80,70,50,30.35,30.31,30.27,20,15,15,14,11,,0.00,4,,327
2014-1-25,49,38,26,30,26,21,75,64,44,30.19,30.13,30.03,15,15,15,17,12,,0.00,3,,333
2014-1-26,34,20,5,27,11,1,86,73,56,30.58,30.44,30.23,20,12,1,32,19,43,0.01,5,Snow,56
2014-1-27,17,8,0,9,3,-4,92,77,52,30.59,30.55,30.46,20,16,15,8,6,,0.00,3,,302
2014-1-28,37,19,1,16,9,-1,85,54,31,30.22,30.06,29.92,20,16,15,17,10,,0.00,1,,333
2014-1-29,29,20,8,21,15,3,93,76,45,30.02,29.81,29.68,15,7,3,14,8,21,0.08,8,Snow,38
2014-1-30,6,-2,-11,2,-4,-15,85,77,68,30.24,30.15,30.04,20,16,15,9,5,,0.04,4,,357
2014-1-31,20,3,-14,10,4,-6,85,73,52,30.26,30.09,29.95,15,10,4,23,12,32,0.00,6,Snow,342